createdAt,value
2019-03-29T00:00:32.698Z,51.07
2019-03-29T00:03:02.798Z,52.37
2019-03-29T00:05:32.933Z,51.90
2019-03-29T00:08:02.955Z,56.70
2019-03-29T00:10:33.171Z,53.53
2019-03-29T00:13:04.417Z,57.50
2019-03-29T00:15:35.460Z,53.37
2019-03-29T00:18:05.885Z,54.13
2019-03-29T00:20:35.901Z,78.50
2019-03-29T00:23:06.229Z,48.47
2019-03-29T00:25:37.370Z,49.50
2019-03-29T00:28:07.805Z,75.03
2019-03-29T00:30:38.118Z,75.67
2019-03-29T00:33:08.443Z,80.17
2019-03-29T00:35:38.358Z,110.10
2019-03-29T00:38:08.789Z,58.60
2019-03-29T00:40:39.927Z,66.73
2019-03-29T00:43:10.250Z,108.90
2019-03-29T00:45:41.397Z,74.00
2019-03-29T00:48:11.648Z,59.13
2019-03-29T00:50:41.477Z,132.13
2019-03-29T00:53:11.751Z,131.50
2019-03-29T00:55:41.870Z,108.47
2019-03-29T00:58:12.296Z,105.10
2019-03-29T01:00:42.928Z,105.97
2019-03-29T01:03:12.946Z,101.07
2019-03-29T01:05:43.268Z,105.53
2019-03-29T01:08:13.287Z,197.43
2019-03-29T01:10:43.404Z,266.73
2019-03-29T01:13:13.422Z,190.57
2019-03-29T01:15:43.437Z,170.63
2019-03-29T01:18:13.659Z,223.43
2019-03-29T01:20:43.778Z,158.47
2019-03-29T01:23:13.898Z,143.03
2019-03-29T01:25:44.017Z,102.27
2019-03-29T01:28:14.443Z,91.07
2019-03-29T01:30:44.461Z,91.17
2019-03-29T01:33:14.689Z,77.10
2019-03-29T01:35:44.564Z,77.17
2019-03-29T01:38:21.722Z,83.00
2019-03-29T01:40:53.847Z,72.40
2019-03-29T01:43:24.067Z,80.40
2019-03-29T01:45:54.186Z,72.90
2019-03-29T01:48:24.511Z,80.20
2019-03-29T01:50:54.424Z,67.47
2019-03-29T01:53:24.852Z,65.47
2019-03-29T01:55:54.868Z,62.90
2019-03-29T01:58:25.566Z,69.30
2019-03-29T02:00:55.725Z,106.60
2019-03-29T02:03:26.454Z,127.13
2019-03-29T02:05:56.573Z,94.00
2019-03-29T02:08:35.720Z,100.90
2019-03-29T02:10:59.680Z,131.20
2019-03-29T02:13:30.310Z,88.23
2019-03-29T02:16:00.736Z,77.60
2019-03-29T02:18:30.958Z,103.27
2019-03-29T02:21:01.078Z,123.27
2019-03-29T02:23:31.298Z,93.83
2019-03-29T02:26:08.210Z,98.17
2019-03-29T02:28:49.603Z,69.83
2019-03-29T02:31:28.807Z,114.80
2019-03-29T02:34:11.629Z,87.43
2019-03-29T02:36:43.879Z,77.67
2019-03-29T02:39:13.895Z,114.50
2019-03-29T02:41:44.119Z,80.77
2019-03-29T02:44:14.138Z,69.50
2019-03-29T02:46:44.360Z,104.97
2019-03-29T02:49:14.378Z,124.23
2019-03-29T02:51:44.600Z,96.17
2019-03-29T02:54:14.524Z,99.97
2019-03-29T02:56:45.753Z,79.70
2019-03-29T02:59:15.873Z,109.73
2019-03-29T03:01:46.002Z,121.30
2019-03-29T03:04:16.008Z,80.07
2019-03-29T03:06:51.656Z,67.63
2019-03-29T03:09:23.006Z,82.47
2019-03-29T03:11:53.124Z,77.47
2019-03-29T03:14:24.498Z,116.47
2019-03-29T03:16:54.625Z,106.50
2019-03-29T03:19:24.633Z,137.03
2019-03-29T03:21:54.933Z,103.63
2019-03-29T03:24:26.282Z,134.53
2019-03-29T03:26:56.504Z,105.40
2019-03-29T03:29:26.518Z,91.60
2019-03-29T03:31:56.843Z,87.30
2019-03-29T03:34:27.084Z,85.27
2019-03-29T03:36:57.388Z,91.60
2019-03-29T03:39:32.260Z,83.67
2019-03-29T03:41:59.266Z,97.17
2019-03-29T03:44:29.383Z,88.03
2019-03-29T03:46:59.502Z,95.70
2019-03-29T03:49:29.519Z,85.60
2019-03-29T03:51:59.640Z,111.37
2019-03-29T03:54:29.551Z,112.37
2019-03-29T03:56:59.775Z,84.40
2019-03-29T03:59:30.098Z,92.07
2019-03-29T04:02:00.116Z,174.10
2019-03-29T04:04:30.950Z,183.87
2019-03-29T04:07:01.189Z,160.97
2019-03-29T04:09:48.036Z,120.73
2019-03-29T04:12:03.357Z,96.57
2019-03-29T04:14:34.606Z,98.30
2019-03-29T04:17:04.926Z,85.40
2019-03-29T04:19:34.943Z,78.00
2019-03-29T04:22:05.168Z,80.77
2019-03-29T04:24:35.901Z,133.40
2019-03-29T04:27:06.649Z,128.83
2019-03-29T04:29:36.964Z,105.70
2019-03-29T04:32:07.186Z,96.23
2019-03-29T04:34:37.298Z,191.27
2019-03-29T04:37:07.518Z,191.50
2019-03-29T04:39:37.535Z,176.10
2019-03-29T04:42:07.654Z,169.40
2019-03-29T04:44:37.667Z,159.50
2019-03-29T04:47:08.404Z,158.40
2019-03-29T04:49:38.421Z,158.33
2019-03-29T04:52:08.644Z,173.17
2019-03-29T04:54:38.555Z,149.77
2019-03-29T04:57:08.681Z,137.70
2019-03-29T04:59:38.794Z,110.03
2019-03-29T05:02:10.141Z,113.40
2019-03-29T05:04:40.465Z,127.87
2019-03-29T05:07:10.484Z,143.50
2019-03-29T05:09:40.602Z,133.87
2019-03-29T05:12:10.618Z,148.80
2019-03-29T05:14:42.069Z,142.37
2019-03-29T05:17:12.088Z,152.17
2019-03-29T05:19:44.548Z,141.47
2019-03-29T05:22:14.065Z,138.27
2019-03-29T05:24:44.493Z,146.70
2019-03-29T05:27:14.508Z,143.93
2019-03-29T05:29:44.934Z,138.17
2019-03-29T05:32:14.954Z,132.97
2019-03-29T05:34:45.069Z,128.80
2019-03-29T05:37:15.087Z,131.70
2019-03-29T05:39:45.248Z,119.07
2019-03-29T05:42:15.222Z,124.60
2019-03-29T05:44:52.756Z,118.97
2019-03-29T05:47:31.757Z,103.10
2019-03-29T05:50:09.746Z,101.20
2019-03-29T05:52:46.218Z,96.30
2019-03-29T05:55:32.712Z,98.20
2019-03-29T05:58:04.272Z,89.03
2019-03-29T06:00:43.198Z,94.00
2019-03-29T06:03:20.776Z,92.33
2019-03-29T06:05:56.234Z,89.70
2019-03-29T06:08:33.772Z,93.30
2019-03-29T06:11:11.772Z,89.97
2019-03-29T06:13:44.207Z,91.60
2019-03-29T06:16:14.737Z,92.20
2019-03-29T06:18:44.651Z,92.03
2019-03-29T06:21:14.793Z,93.50
2019-03-29T06:23:44.682Z,86.17
2019-03-29T06:26:14.903Z,89.60
2019-03-29T06:28:45.234Z,84.00
2019-03-29T06:31:15.652Z,89.30
2019-03-29T06:33:46.079Z,89.57
2019-03-29T06:36:16.305Z,92.23
2019-03-29T06:38:46.624Z,89.83
2019-03-29T06:41:16.641Z,86.47
2019-03-29T06:43:47.067Z,90.77
2019-03-29T06:46:17.084Z,90.83
2019-03-29T06:48:47.203Z,88.53
2019-03-29T06:51:17.229Z,87.73
2019-03-29T06:53:47.648Z,92.10
2019-03-29T06:56:17.663Z,88.43
2019-03-29T06:58:48.001Z,91.43
2019-03-29T07:01:19.335Z,87.57
2019-03-29T07:03:49.560Z,84.77
2019-03-29T07:06:19.854Z,90.87
2019-03-29T07:08:49.796Z,94.93
2019-03-29T07:11:20.223Z,99.20
2019-03-29T07:13:57.218Z,92.97
2019-03-29T07:16:22.302Z,91.97
2019-03-29T07:18:52.325Z,95.77
2019-03-29T07:21:22.748Z,91.93
2019-03-29T07:23:52.890Z,92.97
2019-03-29T07:26:23.292Z,97.47
2019-03-29T07:28:53.523Z,93.73
2019-03-29T07:31:25.168Z,93.23
2019-03-29T07:33:55.186Z,92.27
2019-03-29T07:36:25.509Z,87.77
2019-03-29T07:38:55.526Z,90.90
2019-03-29T07:41:32.142Z,89.83
2019-03-29T07:43:57.709Z,87.97
2019-03-29T07:46:30.389Z,82.70
2019-03-29T07:49:08.597Z,86.27
2019-03-29T07:51:46.922Z,80.87
2019-03-29T07:54:23.893Z,77.63
2019-03-29T07:56:54.214Z,74.60
2019-03-29T07:59:24.639Z,74.47
2019-03-29T08:01:55.065Z,66.87
2019-03-29T08:04:25.084Z,71.37
2019-03-29T08:06:56.332Z,62.63
2019-03-29T08:09:27.431Z,62.00
2019-03-29T08:11:58.205Z,66.87
2019-03-29T08:14:28.221Z,68.13
2019-03-29T08:16:58.647Z,62.33
2019-03-29T08:19:29.893Z,56.13
2019-03-29T08:22:00.226Z,54.97
2019-03-29T08:24:30.438Z,50.83
2019-03-29T08:27:00.865Z,54.87
2019-03-29T08:29:32.110Z,53.47
2019-03-29T08:32:02.434Z,48.33
2019-03-29T08:34:35.734Z,45.37
2019-03-29T08:37:05.130Z,42.93
2019-03-29T08:39:35.455Z,40.43
2019-03-29T08:42:05.880Z,41.20
2019-03-29T08:44:37.536Z,42.03
2019-03-29T08:47:09.204Z,43.37
2019-03-29T08:49:39.518Z,44.43
2019-03-29T08:52:09.531Z,42.13
2019-03-29T08:54:40.881Z,43.30
2019-03-29T08:57:11.001Z,47.07
2019-03-29T08:59:41.220Z,36.17
2019-03-29T09:02:12.466Z,45.03
2019-03-29T09:04:42.689Z,41.37
2019-03-29T09:07:13.219Z,29.07
2019-03-29T09:09:46.236Z,23.83
2019-03-29T09:12:15.213Z,26.63
2019-03-29T09:14:45.411Z,24.13
2019-03-29T09:17:16.355Z,17.53
2019-03-29T09:19:46.986Z,20.50
2019-03-29T09:22:17.311Z,18.90
2019-03-29T09:24:47.326Z,16.73
2019-03-29T09:27:17.753Z,17.83
2019-03-29T09:29:47.875Z,16.77
2019-03-29T09:32:18.503Z,16.07
2019-03-29T09:34:49.749Z,18.20
2019-03-29T09:37:19.976Z,16.20
2019-03-29T09:39:49.989Z,18.53
2019-03-29T09:42:28.810Z,19.00
2019-03-29T09:44:52.069Z,22.00
2019-03-29T09:47:22.395Z,22.30
2019-03-29T09:49:52.517Z,22.90
2019-03-29T09:52:23.859Z,25.10
2019-03-29T09:54:54.154Z,22.67
2019-03-29T09:57:36.967Z,27.33
2019-03-29T09:59:56.576Z,26.73
2019-03-29T10:02:31.114Z,27.23
2019-03-29T10:05:01.026Z,26.60
2019-03-29T10:07:31.538Z,23.23
2019-03-29T10:10:01.971Z,22.77
2019-03-29T10:12:43.144Z,16.57
2019-03-29T10:15:07.015Z,18.57
2019-03-29T10:17:37.749Z,18.23
2019-03-29T10:20:08.994Z,20.13
2019-03-29T10:22:39.933Z,20.73
2019-03-29T10:25:18.982Z,17.50
2019-03-29T10:27:42.426Z,16.63
2019-03-29T10:30:12.645Z,17.03
2019-03-29T10:32:42.969Z,17.33
2019-03-29T10:35:13.299Z,18.03
2019-03-29T10:37:43.164Z,23.50
2019-03-29T10:40:13.169Z,21.30
2019-03-29T10:42:56.666Z,18.87
2019-03-29T10:45:14.896Z,20.10
2019-03-29T10:47:45.016Z,25.17
2019-03-29T10:50:16.056Z,23.43
2019-03-29T10:52:46.176Z,25.43
2019-03-29T10:55:16.500Z,27.60
2019-03-29T10:57:46.517Z,30.23
2019-03-29T11:00:21.574Z,32.07
2019-03-29T11:02:53.005Z,33.83
2019-03-29T11:05:23.120Z,35.20
2019-03-29T11:07:53.136Z,35.17
2019-03-29T11:10:31.347Z,37.67
2019-03-29T11:13:11.842Z,38.93
2019-03-29T11:15:33.119Z,42.10
2019-03-29T11:18:04.672Z,41.50
2019-03-29T11:20:34.996Z,42.07
2019-03-29T11:23:05.117Z,41.43
2019-03-29T11:25:35.643Z,45.83
2019-03-29T11:28:06.070Z,47.00
2019-03-29T11:30:42.471Z,47.17
2019-03-29T11:33:08.165Z,45.20
2019-03-29T11:35:38.482Z,44.77
2019-03-29T11:38:09.723Z,48.97
2019-03-29T11:40:40.046Z,50.53
2019-03-29T11:43:10.227Z,52.83
2019-03-29T11:45:40.492Z,54.77
2019-03-29T11:48:10.610Z,48.67
2019-03-29T11:50:41.034Z,48.00
2019-03-29T11:53:11.052Z,46.27
2019-03-29T11:55:41.172Z,48.93
2019-03-29T11:58:11.395Z,46.93
2019-03-29T12:00:41.715Z,44.57
2019-03-29T12:03:12.146Z,39.43
2019-03-29T12:05:42.671Z,34.63
2019-03-29T12:08:12.690Z,34.03
2019-03-29T12:10:43.011Z,32.60
2019-03-29T12:13:13.030Z,30.27
2019-03-29T12:15:43.454Z,32.73
2019-03-29T12:18:14.699Z,34.07
2019-03-29T12:20:45.025Z,34.87
2019-03-29T12:23:15.245Z,34.50
2019-03-29T12:25:45.298Z,33.90
2019-03-29T12:28:15.486Z,32.73
2019-03-29T12:30:45.705Z,30.87
2019-03-29T12:33:16.544Z,31.47
2019-03-29T12:35:47.173Z,31.37
2019-03-29T12:38:17.189Z,31.17
2019-03-29T12:40:48.026Z,31.70
2019-03-29T12:43:18.144Z,25.30
2019-03-29T12:45:48.785Z,28.97
2019-03-29T12:48:19.304Z,27.00
2019-03-29T12:50:49.319Z,28.20
2019-03-29T12:53:19.656Z,27.97
2019-03-29T12:55:50.993Z,24.60
2019-03-29T12:58:21.726Z,24.53
2019-03-29T13:00:52.262Z,23.83
2019-03-29T13:03:24.319Z,22.20
2019-03-29T13:05:54.541Z,24.13
2019-03-29T13:08:24.660Z,23.57
2019-03-29T13:10:56.083Z,24.20
2019-03-29T13:13:26.232Z,24.27
2019-03-29T13:15:56.246Z,22.57
2019-03-29T13:18:26.774Z,21.90
2019-03-29T13:20:57.200Z,22.13
2019-03-29T13:23:27.350Z,21.30
2019-03-29T13:25:57.644Z,23.20
2019-03-29T13:28:27.968Z,21.03
2019-03-29T13:30:57.986Z,20.00
2019-03-29T13:33:28.309Z,20.63
2019-03-29T13:35:58.352Z,20.30
2019-03-29T13:38:29.060Z,20.83
2019-03-29T13:40:59.689Z,20.03
2019-03-29T13:43:29.710Z,20.37
2019-03-29T13:46:10.285Z,19.87
2019-03-29T13:52:17.174Z,16.83
2019-03-29T13:54:47.496Z,16.23
2019-03-29T13:57:17.819Z,15.43
2019-03-29T13:59:48.145Z,14.60
2019-03-29T14:02:18.262Z,14.20
2019-03-29T14:04:48.177Z,13.37
2019-03-29T14:07:18.603Z,14.47
2019-03-29T14:09:48.621Z,16.87
2019-03-29T14:12:18.739Z,16.60
2019-03-29T14:14:48.756Z,15.53
2019-03-29T14:17:19.182Z,14.77
2019-03-29T14:19:49.711Z,13.80
2019-03-29T14:22:19.841Z,13.33
2019-03-29T14:24:50.157Z,13.93
2019-03-29T14:27:20.401Z,13.77
2019-03-29T14:30:03.165Z,14.83
2019-03-29T14:32:22.692Z,13.80
2019-03-29T14:34:52.894Z,14.43
2019-03-29T14:37:23.416Z,14.43
2019-03-29T14:39:53.443Z,14.50
2019-03-29T14:42:23.857Z,13.93
2019-03-29T14:44:54.283Z,14.90
2019-03-29T14:47:38.158Z,15.00
2019-03-29T14:49:57.084Z,15.30
2019-03-29T14:52:27.726Z,14.17
2019-03-29T14:54:57.728Z,14.33
2019-03-29T14:57:28.154Z,13.67
2019-03-29T14:59:58.375Z,15.00
2019-03-29T15:02:28.701Z,14.57
2019-03-29T15:04:58.829Z,14.33
2019-03-29T15:07:29.143Z,22.43
2019-03-29T15:09:59.264Z,27.40
2019-03-29T15:12:33.477Z,25.00
2019-03-29T15:15:07.148Z,54.20
2019-03-29T15:17:37.401Z,32.10
2019-03-29T15:20:07.932Z,33.80
2019-03-29T15:22:38.156Z,30.13
2019-03-29T15:25:08.374Z,18.63
2019-03-29T15:27:43.492Z,16.07
2019-03-29T15:30:22.494Z,20.70
2019-03-29T15:33:00.496Z,16.93
2019-03-29T15:35:39.470Z,13.80
2019-03-29T15:38:16.489Z,14.10
2019-03-29T15:40:50.370Z,13.43
2019-03-29T15:43:23.137Z,12.57
2019-03-29T15:45:53.359Z,13.80
2019-03-29T15:48:24.200Z,14.53
2019-03-29T15:50:55.440Z,19.83
2019-03-29T15:53:25.766Z,46.60
2019-03-29T15:55:55.990Z,12.70
2019-03-29T15:58:26.006Z,23.43
2019-03-29T16:00:56.327Z,50.20
2019-03-29T16:03:26.446Z,37.83
2019-03-29T16:05:56.597Z,46.60
2019-03-29T16:08:27.094Z,37.13
2019-03-29T16:10:57.828Z,47.17
2019-03-29T16:13:28.255Z,18.23
2019-03-29T16:15:58.277Z,16.57
2019-03-29T16:18:28.493Z,16.57
2019-03-29T16:20:58.778Z,18.90
2019-03-29T16:23:29.349Z,16.27
2019-03-29T16:25:59.464Z,18.47
2019-03-29T16:28:33.579Z,26.23
2019-03-29T16:31:03.801Z,20.10
2019-03-29T16:33:34.536Z,19.83
2019-03-29T16:36:04.446Z,43.90
2019-03-29T16:38:34.598Z,72.93
2019-03-29T16:41:04.584Z,53.67
2019-03-29T16:43:39.208Z,55.77
2019-03-29T16:46:09.224Z,89.37
2019-03-29T16:48:40.470Z,89.33
2019-03-29T16:51:10.487Z,115.50
2019-03-29T16:53:40.912Z,74.23
2019-03-29T16:56:12.333Z,70.97
2019-03-29T16:58:42.379Z,51.80
2019-03-29T17:01:14.617Z,46.37
2019-03-29T17:03:44.563Z,39.50
2019-03-29T17:06:15.214Z,31.73
2019-03-29T17:08:45.647Z,53.87
2019-03-29T17:11:16.048Z,118.47
2019-03-29T17:17:24.997Z,52.23
2019-03-29T17:19:55.424Z,47.73
2019-03-29T17:25:30.065Z,30.80
2019-03-29T17:28:12.050Z,32.40
2019-03-29T17:30:46.203Z,30.47
2019-03-29T17:33:16.995Z,25.33
2019-03-29T17:35:48.394Z,20.63
2019-03-29T17:38:20.487Z,18.13
2019-03-29T17:41:02.105Z,18.70
2019-03-29T17:43:31.902Z,19.10
2019-03-29T17:46:15.187Z,21.93
2019-03-29T17:48:33.115Z,23.47
2019-03-29T17:51:02.567Z,25.17
2019-03-29T17:53:32.122Z,33.20
2019-03-29T17:56:01.663Z,53.27
2019-03-29T17:58:31.220Z,92.17
2019-03-29T18:01:01.874Z,42.53
2019-03-29T18:03:31.412Z,30.43
2019-03-29T18:06:01.112Z,32.97
2019-03-29T18:08:30.963Z,43.47
2019-03-29T18:11:00.507Z,51.40
2019-03-29T18:13:30.111Z,71.00
2019-03-29T18:15:59.671Z,57.70
2019-03-29T18:18:29.243Z,53.50
2019-03-29T18:20:58.799Z,60.00
2019-03-29T18:23:28.358Z,62.53
2019-03-29T18:25:57.921Z,64.67
2019-03-29T18:28:27.460Z,58.37
2019-03-29T18:30:57.010Z,57.43
2019-03-29T18:33:26.559Z,56.90
2019-03-29T18:35:56.133Z,57.33
2019-03-29T18:38:25.671Z,54.37
2019-03-29T18:40:55.223Z,52.77
2019-03-29T18:43:24.792Z,54.73
2019-03-29T18:45:54.338Z,54.53
2019-03-29T18:48:24.050Z,53.03
2019-03-29T18:50:53.588Z,65.70
2019-03-29T18:53:23.141Z,195.83
2019-03-29T18:55:52.929Z,129.90
2019-03-29T18:58:22.863Z,99.97
2019-03-29T19:00:52.775Z,58.60
2019-03-29T19:03:22.319Z,49.63
2019-03-29T19:05:51.880Z,49.40
2019-03-29T19:08:21.413Z,49.73
2019-03-29T19:10:51.294Z,56.17
2019-03-29T19:13:20.830Z,53.93
2019-03-29T19:15:50.377Z,51.73
2019-03-29T19:18:19.931Z,53.77
2019-03-29T19:20:49.490Z,59.50
2019-03-29T19:23:19.090Z,76.40
2019-03-29T19:25:48.652Z,80.10
2019-03-29T19:28:19.214Z,69.87
2019-03-29T19:30:48.784Z,72.80
2019-03-29T19:33:18.346Z,66.07
2019-03-29T19:35:47.880Z,66.70
2019-03-29T19:38:17.422Z,70.53
2019-03-29T19:40:48.197Z,96.07
2019-03-29T19:43:17.842Z,90.47
2019-03-29T19:45:47.417Z,80.57
2019-03-29T19:48:18.049Z,93.77
2019-03-29T19:50:47.618Z,120.63
2019-03-29T19:53:17.249Z,105.87
2019-03-29T19:55:47.120Z,65.27
2019-03-29T19:58:16.852Z,55.43
2019-03-29T20:01:05.899Z,51.80
2019-03-29T20:03:35.474Z,51.47
2019-03-29T20:06:05.371Z,51.43
2019-03-29T20:08:34.906Z,52.73
2019-03-29T20:11:04.500Z,50.33
2019-03-29T20:13:34.033Z,51.70
2019-03-29T20:16:03.586Z,53.53
2019-03-29T20:18:33.131Z,50.83
2019-03-29T20:21:02.741Z,50.37
2019-03-29T20:23:32.295Z,63.20
2019-03-29T20:26:02.143Z,71.73
2019-03-29T20:28:31.753Z,62.23
2019-03-29T20:31:01.311Z,54.27
2019-03-29T20:33:31.152Z,54.50
2019-03-29T20:36:02.771Z,48.20
2019-03-29T20:38:32.311Z,46.90
2019-03-29T20:41:02.015Z,49.30
2019-03-29T20:43:31.541Z,48.43
2019-03-29T20:46:01.088Z,48.13
2019-03-29T20:48:30.634Z,52.20
2019-03-29T20:51:00.199Z,52.07
2019-03-29T20:53:29.762Z,59.18
2019-03-29T20:55:59.304Z,55.57
2019-03-29T20:58:28.844Z,51.97
2019-03-29T21:00:58.426Z,49.30
2019-03-29T21:03:28.197Z,59.00
2019-03-29T21:05:57.958Z,54.43
2019-03-29T21:08:27.510Z,53.67
2019-03-29T21:10:57.061Z,53.83
2019-03-29T21:13:26.769Z,60.13
2019-03-29T21:15:56.253Z,62.40
2019-03-29T21:18:25.836Z,56.43
2019-03-29T21:21:07.409Z,60.63
2019-03-29T21:23:37.103Z,56.13
2019-03-29T21:26:06.603Z,60.17
2019-03-29T21:28:36.186Z,59.23
2019-03-29T21:31:05.716Z,60.07
2019-03-29T21:33:35.271Z,68.47
2019-03-29T21:36:05.185Z,69.97
2019-03-29T21:38:34.721Z,69.53
2019-03-29T21:41:04.602Z,74.60
2019-03-29T21:43:34.228Z,73.20
2019-03-29T21:46:03.775Z,73.17
2019-03-29T21:48:33.326Z,69.77
2019-03-29T21:51:02.866Z,68.60
2019-03-29T21:53:32.419Z,68.53
2019-03-29T21:56:01.960Z,69.53
2019-03-29T21:58:31.882Z,63.20
2019-03-29T22:01:01.435Z,67.77
2019-03-29T22:03:31.139Z,69.77
2019-03-29T22:06:00.630Z,64.53
2019-03-29T22:08:30.186Z,69.93
2019-03-29T22:10:59.756Z,68.77
2019-03-29T22:13:29.314Z,70.20
2019-03-29T22:15:58.855Z,65.97
2019-03-29T22:18:37.896Z,62.43
2019-03-29T22:20:59.590Z,67.63
2019-03-29T22:23:29.159Z,70.17
2019-03-29T22:25:58.723Z,67.20
2019-03-29T22:28:28.308Z,69.20
2019-03-29T22:30:57.858Z,74.13
2019-03-29T22:33:27.425Z,73.53
2019-03-29T22:35:56.967Z,70.20
2019-03-29T22:38:26.896Z,72.23
2019-03-29T22:40:56.466Z,100.80
2019-03-29T22:43:26.003Z,94.47
2019-03-29T22:45:55.575Z,74.50
2019-03-29T22:48:25.118Z,74.17
2019-03-29T22:50:54.674Z,73.53
2019-03-29T22:53:24.296Z,103.80
2019-03-29T22:56:13.187Z,85.20
2019-03-29T22:58:42.779Z,93.43
2019-03-29T23:01:12.317Z,80.33
2019-03-29T23:03:43.419Z,80.60
2019-03-29T23:06:12.972Z,84.83
2019-03-29T23:08:42.528Z,85.40
2019-03-29T23:11:12.310Z,80.43
2019-03-29T23:13:41.857Z,81.50
2019-03-29T23:16:11.533Z,73.93
2019-03-29T23:18:41.046Z,83.17
2019-03-29T23:21:10.602Z,83.03
2019-03-29T23:23:40.179Z,85.33
2019-03-29T23:26:09.743Z,83.20
2019-03-29T23:28:39.296Z,84.80
2019-03-29T23:31:08.852Z,86.70
2019-03-29T23:33:38.409Z,84.00
2019-03-29T23:36:08.990Z,83.77
2019-03-29T23:38:38.536Z,86.67
2019-03-29T23:41:09.207Z,78.43
2019-03-29T23:43:38.754Z,84.00
2019-03-29T23:46:08.338Z,84.30
2019-03-29T23:48:38.058Z,80.87
2019-03-29T23:51:07.635Z,92.73
2019-03-29T23:53:37.225Z,96.67
2019-03-29T23:56:06.730Z,96.27
2019-03-29T23:58:36.295Z,90.67
